createdAt,value
2023-02-11T00:01:21.664Z,99169.52
2023-02-11T00:03:49.806Z,99161.17
2023-02-11T00:06:17.783Z,99163.38
2023-02-11T00:08:46.210Z,99163.06
2023-02-11T00:11:17.367Z,99166.51
2023-02-11T00:13:46.193Z,99173.96
2023-02-11T00:16:17.574Z,99176.68
2023-02-11T00:18:46.368Z,99173.23
2023-02-11T00:21:18.045Z,99172.94
2023-02-11T00:23:46.731Z,99175.36
2023-02-11T00:26:21.373Z,99173.79
2023-02-11T00:28:51.073Z,99171.86
2023-02-11T00:31:20.983Z,99170.01
2023-02-11T00:33:49.183Z,99169.29
2023-02-11T00:36:21.178Z,99166.63
2023-02-11T00:38:50.641Z,99163.74
2023-02-11T00:41:19.100Z,99160.44
2023-02-11T00:43:47.589Z,99160.21
2023-02-11T00:46:16.185Z,99163.73
2023-02-11T00:48:44.687Z,99159.56
2023-02-11T00:51:13.815Z,99156.49
2023-02-11T00:53:41.781Z,99153.61
2023-02-11T00:56:09.892Z,99154.67
2023-02-11T00:58:38.562Z,99151.16
2023-02-11T01:01:06.670Z,99148.79
2023-02-11T01:03:35.191Z,99145.21
2023-02-11T01:06:03.309Z,99138.17
2023-02-11T01:08:31.500Z,99135.70
2023-02-11T01:11:03.485Z,99131.18
2023-02-11T01:13:35.167Z,99131.31
2023-02-11T01:16:07.432Z,99128.37
2023-02-11T01:18:36.424Z,99125.26
2023-02-11T01:21:04.803Z,99121.48
2023-02-11T01:23:32.701Z,99119.58
2023-02-11T01:26:00.712Z,99117.34
2023-02-11T01:28:30.476Z,99115.59
2023-02-11T01:31:00.116Z,99116.39
2023-02-11T01:33:28.970Z,99112.39
2023-02-11T01:36:01.982Z,99109.30
2023-02-11T01:38:30.521Z,99104.95
2023-02-11T01:41:04.793Z,99098.93
2023-02-11T01:43:36.436Z,99100.13
2023-02-11T01:46:07.132Z,99101.39
2023-02-11T01:48:39.299Z,99100.70
2023-02-11T01:51:13.730Z,99100.20
2023-02-11T01:54:02.102Z,99096.23
2023-02-11T01:56:50.176Z,99093.24
2023-02-11T01:59:24.625Z,99090.89
2023-02-11T02:01:58.957Z,99093.02
2023-02-11T02:04:32.102Z,99088.50
2023-02-11T02:07:08.891Z,99093.25
2023-02-11T02:09:44.530Z,99090.89
2023-02-11T02:12:12.483Z,99085.83
2023-02-11T02:14:41.900Z,99081.23
2023-02-11T02:17:38.201Z,99080.04
2023-02-11T02:20:09.083Z,99073.95
2023-02-11T02:23:06.151Z,99069.04
2023-02-11T02:25:49.553Z,99067.68
2023-02-11T02:29:09.462Z,99064.46
2023-02-11T02:32:05.148Z,99061.92
2023-02-11T02:34:58.644Z,99060.58
2023-02-11T02:37:42.029Z,99061.50
2023-02-11T02:40:17.100Z,99060.73
2023-02-11T02:42:46.440Z,99055.11
2023-02-11T02:45:14.969Z,99050.50
2023-02-11T02:47:42.872Z,99052.31
2023-02-11T02:50:15.012Z,99049.57
2023-02-11T02:53:00.776Z,99050.22
2023-02-11T02:56:03.433Z,99053.23
2023-02-11T02:59:00.073Z,99049.98
2023-02-11T03:01:47.320Z,99051.34
2023-02-11T03:04:27.173Z,99050.51
2023-02-11T03:07:03.233Z,99045.67
2023-02-11T03:09:44.527Z,99042.54
2023-02-11T03:12:14.736Z,99041.41
2023-02-11T03:14:44.137Z,99040.24
2023-02-11T03:17:15.069Z,99040.89
2023-02-11T03:19:46.186Z,99044.20
2023-02-11T03:22:27.249Z,99047.15
2023-02-11T03:24:56.309Z,99047.64
2023-02-11T03:27:36.861Z,99049.05
2023-02-11T03:30:40.655Z,99047.40
2023-02-11T03:33:24.365Z,99043.73
2023-02-11T03:36:04.843Z,99042.00
2023-02-11T03:38:37.647Z,99040.53
2023-02-11T03:41:08.244Z,99040.34
2023-02-11T03:43:42.722Z,99037.95
2023-02-11T03:46:13.579Z,99034.85
2023-02-11T03:48:47.446Z,99037.63
2023-02-11T03:51:17.126Z,99042.11
2023-02-11T03:53:47.201Z,99040.57
2023-02-11T03:56:19.887Z,99035.44
2023-02-11T03:58:49.073Z,99032.24
2023-02-11T04:01:17.213Z,99028.31
2023-02-11T04:03:45.145Z,99026.97
2023-02-11T04:06:13.048Z,99025.59
2023-02-11T04:08:40.929Z,99022.81
2023-02-11T04:11:08.976Z,99018.33
2023-02-11T04:13:36.898Z,99017.61
2023-02-11T04:16:05.024Z,99019.87
2023-02-11T04:18:33.025Z,99017.27
2023-02-11T04:21:01.036Z,99012.62
2023-02-11T04:23:29.309Z,99013.30
2023-02-11T04:25:57.408Z,99012.89
2023-02-11T04:28:26.957Z,99009.91
2023-02-11T04:30:55.898Z,99005.38
2023-02-11T04:33:24.510Z,99004.52
2023-02-11T04:35:52.700Z,99002.37
2023-02-11T04:38:24.127Z,99004.30
2023-02-11T04:40:52.084Z,99005.19
2023-02-11T04:43:20.040Z,98999.71
2023-02-11T04:45:48.441Z,99001.02
2023-02-11T04:48:16.771Z,99003.86
2023-02-11T04:50:44.693Z,99001.00
2023-02-11T04:53:12.606Z,98995.48
2023-02-11T04:55:40.600Z,98991.25
2023-02-11T04:58:08.551Z,98990.14
2023-02-11T05:00:36.500Z,98988.25
2023-02-11T05:03:04.386Z,98990.73
2023-02-11T05:05:32.379Z,98994.00
2023-02-11T05:08:00.420Z,98994.77
2023-02-11T05:10:28.710Z,98997.19
2023-02-11T05:12:56.580Z,99003.14
2023-02-11T05:15:24.638Z,99007.14
2023-02-11T05:17:52.777Z,99010.35
2023-02-11T05:20:21.349Z,99013.67
2023-02-11T05:22:49.432Z,99017.44
2023-02-11T05:25:17.553Z,99013.95
2023-02-11T05:27:45.512Z,99014.40
2023-02-11T05:30:14.737Z,99008.57
2023-02-11T05:32:42.785Z,99008.27
2023-02-11T05:35:10.646Z,99011.19
2023-02-11T05:37:38.697Z,99008.02
2023-02-11T05:40:06.848Z,99002.80
2023-02-11T05:42:35.303Z,99002.28
2023-02-11T05:45:04.289Z,99000.50
2023-02-11T05:47:32.261Z,98996.77
2023-02-11T05:50:00.352Z,98998.89
2023-02-11T05:52:28.401Z,98995.65
2023-02-11T05:54:56.293Z,98994.23
2023-02-11T05:57:24.224Z,98996.20
2023-02-11T05:59:52.194Z,98995.14
2023-02-11T06:02:20.161Z,98993.48
2023-02-11T06:04:48.336Z,98995.34
2023-02-11T06:07:20.508Z,98994.09
2023-02-11T06:09:57.628Z,98993.66
2023-02-11T06:12:26.865Z,98992.73
2023-02-11T06:14:54.765Z,98993.54
2023-02-11T06:17:23.449Z,98989.47
2023-02-11T06:19:51.506Z,98992.65
2023-02-11T06:22:19.568Z,98994.32
2023-02-11T06:25:01.433Z,98996.98
2023-02-11T06:27:30.640Z,98993.39
2023-02-11T06:30:03.104Z,99002.77
2023-02-11T06:32:45.146Z,99001.65
2023-02-11T06:35:14.936Z,99000.83
2023-02-11T06:37:43.109Z,98999.77
2023-02-11T06:40:12.779Z,98998.77
2023-02-11T06:42:40.868Z,98996.65
2023-02-11T06:45:11.035Z,98990.38
2023-02-11T06:47:42.229Z,98993.56
2023-02-11T06:50:14.185Z,98991.22
2023-02-11T06:52:43.151Z,98990.00
2023-02-11T06:55:11.149Z,98990.71
2023-02-11T06:57:39.312Z,98988.05
2023-02-11T07:00:08.994Z,98986.42
2023-02-11T07:02:37.257Z,98985.52
2023-02-11T07:05:07.443Z,98982.20
2023-02-11T07:07:35.737Z,98981.76
2023-02-11T07:10:04.614Z,98981.89
2023-02-11T07:12:32.771Z,98985.10
2023-02-11T07:15:00.777Z,98990.12
2023-02-11T07:17:28.849Z,98992.80
2023-02-11T07:19:56.894Z,98997.28
2023-02-11T07:22:24.987Z,98996.27
2023-02-11T07:24:52.968Z,98985.16
2023-02-11T07:27:20.828Z,98984.63
2023-02-11T07:29:48.831Z,98986.16
2023-02-11T07:32:17.355Z,98993.45
2023-02-11T07:34:45.610Z,98994.30
2023-02-11T07:37:13.791Z,98990.81
2023-02-11T07:39:41.846Z,98989.87
2023-02-11T07:42:09.890Z,98987.59
2023-02-11T07:44:38.018Z,98990.23
2023-02-11T07:47:09.008Z,98985.34
2023-02-11T07:49:37.065Z,98978.14
2023-02-11T07:52:05.210Z,98976.63
2023-02-11T07:54:33.252Z,98979.44
2023-02-11T07:57:03.789Z,98982.21
2023-02-11T07:59:40.314Z,98982.24
2023-02-11T08:02:09.728Z,98979.59
2023-02-11T08:04:37.759Z,98972.58
2023-02-11T08:07:06.910Z,98972.41
2023-02-11T08:09:34.850Z,98969.10
2023-02-11T08:12:03.017Z,98966.27
2023-02-11T08:14:33.481Z,98967.67
2023-02-11T08:17:02.165Z,98963.70
2023-02-11T08:19:30.341Z,98958.38
2023-02-11T08:21:59.785Z,98952.45
2023-02-11T08:24:27.983Z,98939.95
2023-02-11T08:26:56.494Z,98936.51
2023-02-11T08:29:26.297Z,98935.02
2023-02-11T08:31:54.624Z,98937.95
2023-02-11T08:34:22.823Z,98940.90
2023-02-11T08:36:50.898Z,98938.23
2023-02-11T08:39:21.576Z,98933.10
2023-02-11T08:41:52.897Z,98929.34
2023-02-11T08:44:21.861Z,98925.52
2023-02-11T08:46:51.814Z,98926.98
2023-02-11T08:49:21.323Z,98927.95
2023-02-11T08:51:50.752Z,98926.71
2023-02-11T08:54:19.106Z,98923.41
2023-02-11T08:56:52.315Z,98917.86
2023-02-11T08:59:20.775Z,98916.40
2023-02-11T09:01:50.959Z,98918.86
2023-02-11T09:04:22.306Z,98920.92
2023-02-11T09:06:50.489Z,98918.86
2023-02-11T09:09:19.659Z,98906.59
2023-02-11T09:11:48.297Z,98889.14
2023-02-11T09:14:22.402Z,98893.39
2023-02-11T09:17:10.386Z,98889.95
2023-02-11T09:19:40.440Z,98894.52
2023-02-11T09:22:09.236Z,98894.17
2023-02-11T09:24:37.695Z,98893.46
2023-02-11T09:27:16.673Z,98891.13
2023-02-11T09:29:52.095Z,98893.23
2023-02-11T09:32:40.055Z,98889.83
2023-02-11T09:35:08.600Z,98888.02
2023-02-11T09:37:37.493Z,98876.73
2023-02-11T09:40:06.811Z,98883.75
2023-02-11T09:43:21.296Z,98885.31
2023-02-11T09:46:05.117Z,98883.70
2023-02-11T09:48:42.043Z,98879.64
2023-02-11T09:51:44.547Z,98873.30
2023-02-11T09:54:23.685Z,98866.22
2023-02-11T09:56:55.389Z,98876.38
2023-02-11T09:59:23.634Z,98876.02
2023-02-11T10:01:59.363Z,98868.48
2023-02-11T10:04:41.214Z,98867.77
2023-02-11T10:07:37.557Z,98869.76
2023-02-11T10:10:36.192Z,98871.75
2023-02-11T10:13:26.353Z,98860.95
2023-02-11T10:16:14.096Z,98854.95
2023-02-11T10:19:00.435Z,98848.25
2023-02-11T10:21:43.810Z,98846.64
2023-02-11T10:24:17.075Z,98838.04
2023-02-11T10:26:46.054Z,98839.15
2023-02-11T10:29:26.276Z,98841.38
2023-02-11T10:31:56.576Z,98845.77
2023-02-11T10:34:26.097Z,98847.39
2023-02-11T10:36:54.100Z,98847.52
2023-02-11T10:39:26.208Z,98840.30
2023-02-11T10:42:00.431Z,98838.14
2023-02-11T10:44:34.982Z,98833.40
2023-02-11T10:47:24.002Z,98828.15
2023-02-11T10:49:52.188Z,98821.67
2023-02-11T10:52:22.084Z,98816.52
2023-02-11T10:54:58.491Z,98805.39
2023-02-11T10:57:31.740Z,98800.94
2023-02-11T11:00:06.615Z,98801.83
2023-02-11T11:02:38.897Z,98799.09
2023-02-11T11:05:17.282Z,98788.20
2023-02-11T11:08:13.748Z,98776.66
2023-02-11T11:10:44.912Z,98773.12
2023-02-11T11:13:28.135Z,98766.64
2023-02-11T11:16:25.403Z,98763.45
2023-02-11T11:19:08.413Z,98748.00
2023-02-11T11:21:44.446Z,98742.42
2023-02-11T11:24:22.597Z,98740.05
2023-02-11T11:26:54.307Z,98731.73
2023-02-11T11:29:37.048Z,98729.47
2023-02-11T11:32:20.523Z,98723.98
2023-02-11T11:34:54.166Z,98717.44
2023-02-11T11:37:33.061Z,98712.69
2023-02-11T11:40:26.830Z,98707.45
2023-02-11T11:43:13.184Z,98707.42
2023-02-11T11:46:01.173Z,98708.52
2023-02-11T11:48:40.200Z,98702.07
2023-02-11T11:51:13.399Z,98693.02
2023-02-11T11:53:41.263Z,98695.06
2023-02-11T11:56:18.313Z,98694.67
2023-02-11T11:58:46.311Z,98697.55
2023-02-11T12:01:39.343Z,98690.84
2023-02-11T12:04:25.514Z,98689.73
2023-02-11T12:06:59.334Z,98686.53
2023-02-11T12:09:40.253Z,98679.39
2023-02-11T12:12:26.837Z,98672.02
2023-02-11T12:15:19.851Z,98673.02
2023-02-11T12:18:10.657Z,98669.78
2023-02-11T12:21:03.627Z,98665.48
2023-02-11T12:23:55.443Z,98658.31
2023-02-11T12:26:31.534Z,98645.34
2023-02-11T12:29:33.544Z,98644.80
2023-02-11T12:32:04.455Z,98647.16
2023-02-11T12:34:43.165Z,98648.56
2023-02-11T12:37:48.702Z,98647.80
2023-02-11T12:40:43.732Z,98641.97
2023-02-11T12:43:26.992Z,98649.08
2023-02-11T12:46:25.957Z,98649.12
2023-02-11T12:49:15.376Z,98641.03
2023-02-11T12:51:58.307Z,98641.20
2023-02-11T12:54:35.683Z,98636.92
2023-02-11T12:57:06.264Z,98635.52
2023-02-11T13:00:19.780Z,98627.23
2023-02-11T13:03:05.545Z,98619.45
2023-02-11T13:05:40.830Z,98619.47
2023-02-11T13:08:15.959Z,98613.93
2023-02-11T13:10:49.860Z,98609.81
2023-02-11T13:13:34.983Z,98605.52
2023-02-11T13:16:39.804Z,98597.92
2023-02-11T13:19:13.558Z,98596.20
2023-02-11T13:22:06.090Z,98595.30
2023-02-11T13:24:58.343Z,98585.30
2023-02-11T13:27:44.217Z,98582.70
2023-02-11T13:30:31.546Z,98582.69
2023-02-11T13:33:02.333Z,98577.48
2023-02-11T13:35:31.899Z,98577.15
2023-02-11T13:38:03.477Z,98580.87
2023-02-11T13:40:39.858Z,98579.33
2023-02-11T13:43:21.829Z,98580.23
2023-02-11T13:45:52.418Z,98583.14
2023-02-11T13:48:32.038Z,98582.25
2023-02-11T13:51:10.919Z,98583.27
2023-02-11T13:53:49.306Z,98583.80
2023-02-11T13:56:41.082Z,98580.83
2023-02-11T13:59:27.671Z,98574.30
2023-02-11T14:02:35.411Z,98573.20
2023-02-11T14:05:24.860Z,98575.98
2023-02-11T14:08:29.986Z,98572.71
2023-02-11T14:10:58.956Z,98564.56
2023-02-11T14:13:31.283Z,98555.99
2023-02-11T14:16:07.218Z,98552.48
2023-02-11T14:18:45.302Z,98541.98
2023-02-11T14:21:23.935Z,98533.05
2023-02-11T14:23:56.111Z,98529.92
2023-02-11T14:26:42.555Z,98530.38
2023-02-11T14:29:22.916Z,98530.33
2023-02-11T14:31:53.823Z,98532.98
2023-02-11T14:34:30.949Z,98531.52
2023-02-11T14:37:33.954Z,98524.50
2023-02-11T14:40:22.807Z,98521.95
2023-02-11T14:42:53.986Z,98518.87
2023-02-11T14:45:27.394Z,98519.98
2023-02-11T14:48:16.333Z,98523.90
2023-02-11T14:50:54.348Z,98532.04
2023-02-11T14:53:25.516Z,98532.61
2023-02-11T14:55:55.666Z,98530.36
2023-02-11T14:58:32.224Z,98525.77
2023-02-11T15:01:25.862Z,98526.50
2023-02-11T15:03:56.841Z,98530.76
2023-02-11T15:06:38.293Z,98532.41
2023-02-11T15:09:29.434Z,98535.70
2023-02-11T15:11:57.799Z,98537.21
2023-02-11T15:14:33.104Z,98540.45
2023-02-11T15:17:08.211Z,98539.39
2023-02-11T15:19:41.285Z,98536.77
2023-02-11T15:22:33.010Z,98533.39
2023-02-11T15:25:07.489Z,98533.64
2023-02-11T15:27:40.230Z,98532.64
2023-02-11T15:30:31.030Z,98533.17
2023-02-11T15:33:03.045Z,98531.98
2023-02-11T15:35:40.934Z,98526.77
2023-02-11T15:38:12.897Z,98528.63
2023-02-11T15:40:40.931Z,98522.41
2023-02-11T15:43:10.714Z,98516.16
2023-02-11T15:46:01.408Z,98508.86
2023-02-11T15:48:42.393Z,98497.05
2023-02-11T15:51:38.769Z,98485.76
2023-02-11T15:54:18.562Z,98487.42
2023-02-11T15:56:50.844Z,98487.70
2023-02-11T15:59:39.327Z,98488.52
2023-02-11T16:02:16.167Z,98489.28
2023-02-11T16:05:17.311Z,98487.39
2023-02-11T16:07:50.704Z,98482.59
2023-02-11T16:10:20.798Z,98477.52
2023-02-11T16:13:12.059Z,98473.92
2023-02-11T16:15:46.943Z,98474.95
2023-02-11T16:18:38.254Z,98470.14
2023-02-11T16:21:16.070Z,98469.14
2023-02-11T16:23:51.644Z,98470.57
2023-02-11T16:26:52.975Z,98472.42
2023-02-11T16:29:26.342Z,98472.39
2023-02-11T16:32:07.181Z,98474.25
2023-02-11T16:34:35.465Z,98475.07
2023-02-11T16:37:08.110Z,98476.55
2023-02-11T16:39:38.904Z,98477.24
2023-02-11T16:42:08.304Z,98483.38
2023-02-11T16:44:36.398Z,98482.47
2023-02-11T16:47:08.092Z,98482.58
2023-02-11T16:49:40.683Z,98482.34
2023-02-11T16:52:13.818Z,98478.45
2023-02-11T16:54:41.985Z,98478.63
2023-02-11T16:57:21.934Z,98474.00
2023-02-11T16:59:50.424Z,98468.25
2023-02-11T17:02:18.324Z,98464.48
2023-02-11T17:04:47.048Z,98466.09
2023-02-11T17:07:15.158Z,98469.14
2023-02-11T17:09:43.115Z,98475.96
2023-02-11T17:12:11.031Z,98483.27
2023-02-11T17:14:39.045Z,98483.58
2023-02-11T17:17:08.072Z,98481.34
2023-02-11T17:19:36.871Z,98475.16
2023-02-11T17:22:05.547Z,98471.81
2023-02-11T17:24:33.558Z,98470.02
2023-02-11T17:27:01.528Z,98468.77
2023-02-11T17:29:29.661Z,98460.48
2023-02-11T17:32:02.837Z,98452.27
2023-02-11T17:34:32.447Z,98436.42
2023-02-11T17:37:01.520Z,98415.66
2023-02-11T17:39:29.482Z,98406.21
2023-02-11T17:41:57.491Z,98405.30
2023-02-11T17:44:25.566Z,98417.21
2023-02-11T17:46:56.256Z,98425.73
2023-02-11T17:49:24.435Z,98434.55
2023-02-11T17:51:52.409Z,98444.89
2023-02-11T17:54:20.784Z,98450.43
2023-02-11T17:56:50.856Z,98454.50
2023-02-11T17:59:19.818Z,98463.10
2023-02-11T18:01:48.512Z,98464.10
2023-02-11T18:04:19.320Z,98460.52
2023-02-11T18:09:40.640Z,98465.70
2023-02-11T18:12:09.588Z,98466.43
2023-02-11T18:14:41.683Z,98471.20
2023-02-11T18:17:10.010Z,98471.11
2023-02-11T18:19:38.268Z,98474.22
2023-02-11T18:22:06.722Z,98476.03
2023-02-11T18:24:35.031Z,98474.52
2023-02-11T18:27:03.337Z,98463.25
2023-02-11T18:29:31.608Z,98458.06
2023-02-11T18:31:59.775Z,98451.29
2023-02-11T18:34:31.731Z,98455.90
2023-02-11T18:37:04.149Z,98454.10
2023-02-11T18:39:42.906Z,98460.73
2023-02-11T18:42:11.149Z,98456.20
2023-02-11T18:44:39.640Z,98455.59
2023-02-11T18:47:07.773Z,98453.40
2023-02-11T18:49:36.392Z,98453.02
2023-02-11T18:52:05.899Z,98450.77
2023-02-11T18:54:36.060Z,98456.21
2023-02-11T18:57:04.310Z,98459.27
2023-02-11T18:59:32.455Z,98453.14
2023-02-11T19:02:00.796Z,98449.54
2023-02-11T19:04:29.249Z,98450.56
2023-02-11T19:06:57.354Z,98451.58
2023-02-11T19:09:25.466Z,98458.48
2023-02-11T19:11:54.587Z,98457.80
2023-02-11T19:14:26.260Z,98458.40
2023-02-11T19:16:57.368Z,98456.85
2023-02-11T19:19:28.812Z,98458.49
2023-02-11T19:21:58.304Z,98460.65
2023-02-11T19:24:29.596Z,98462.21
2023-02-11T19:27:01.172Z,98460.94
2023-02-11T19:29:32.532Z,98447.20
2023-02-11T19:32:01.537Z,98446.89
2023-02-11T19:34:29.732Z,98452.28
2023-02-11T19:37:00.929Z,98448.30
2023-02-11T19:39:35.451Z,98454.57
2023-02-11T19:42:06.588Z,98459.81
2023-02-11T19:44:34.723Z,98457.35
2023-02-11T19:47:03.334Z,98448.15
2023-02-11T19:49:34.273Z,98434.23
2023-02-11T19:52:02.611Z,98433.33
2023-02-11T19:54:44.672Z,98434.52
2023-02-11T19:57:23.746Z,98423.56
2023-02-11T19:59:55.088Z,98426.48
2023-02-11T20:02:31.978Z,98425.42
2023-02-11T20:05:00.435Z,98422.52
2023-02-11T20:07:31.536Z,98418.91
2023-02-11T20:10:00.187Z,98418.41
2023-02-11T20:12:29.304Z,98415.01
2023-02-11T20:14:57.897Z,98414.13
2023-02-11T20:17:26.235Z,98412.33
2023-02-11T20:19:54.243Z,98403.02
2023-02-11T20:22:22.230Z,98402.60
2023-02-11T20:24:50.264Z,98399.06
2023-02-11T20:27:20.067Z,98393.53
2023-02-11T20:29:48.280Z,98393.51
2023-02-11T20:32:16.302Z,98393.20
2023-02-11T20:34:44.588Z,98390.73
2023-02-11T20:37:12.776Z,98392.41
2023-02-11T20:39:44.817Z,98389.32
2023-02-11T20:42:15.170Z,98380.27
2023-02-11T20:44:43.313Z,98377.20
2023-02-11T20:47:12.341Z,98379.59
2023-02-11T20:49:40.405Z,98379.02
2023-02-11T20:52:08.700Z,98375.55
2023-02-11T20:54:39.127Z,98366.86
2023-02-11T20:57:17.740Z,98364.67
2023-02-11T20:59:49.170Z,98372.08
2023-02-11T21:02:21.871Z,98374.55
2023-02-11T21:04:51.663Z,98369.73
2023-02-11T21:07:20.087Z,98367.48
2023-02-11T21:10:02.361Z,98363.73
2023-02-11T21:12:30.728Z,98364.10
2023-02-11T21:14:59.260Z,98369.70
2023-02-11T21:17:27.627Z,98365.95
2023-02-11T21:19:55.675Z,98349.39
2023-02-11T21:22:24.248Z,98345.86
2023-02-11T21:24:52.675Z,98349.34
2023-02-11T21:27:21.429Z,98345.60
2023-02-11T21:29:54.422Z,98346.21
2023-02-11T21:32:22.997Z,98347.17
2023-02-11T21:34:54.324Z,98351.16
2023-02-11T21:37:23.597Z,98355.94
2023-02-11T21:39:51.516Z,98357.76
2023-02-11T21:42:19.467Z,98355.49
2023-02-11T21:44:47.524Z,98356.96
2023-02-11T21:47:15.865Z,98354.46
2023-02-11T21:49:44.135Z,98355.23
2023-02-11T21:52:12.062Z,98354.83
2023-02-11T21:54:39.993Z,98358.50
2023-02-11T21:57:08.000Z,98359.64
2023-02-11T21:59:36.410Z,98349.51
2023-02-11T22:02:04.520Z,98354.88
2023-02-11T22:04:33.587Z,98349.38
2023-02-11T22:07:03.087Z,98353.68
2023-02-11T22:09:31.035Z,98356.64
2023-02-11T22:12:01.923Z,98351.98
2023-02-11T22:14:32.422Z,98356.26
2023-02-11T22:17:00.492Z,98363.53
2023-02-11T22:19:28.545Z,98363.98
2023-02-11T22:21:56.509Z,98359.42
2023-02-11T22:24:26.622Z,98361.09
2023-02-11T22:26:54.624Z,98364.02
2023-02-11T22:29:22.975Z,98362.09
2023-02-11T22:31:51.016Z,98355.85
2023-02-11T22:34:18.999Z,98345.30
2023-02-11T22:36:47.083Z,98346.59
2023-02-11T22:39:17.652Z,98353.70
2023-02-11T22:41:47.363Z,98359.45
2023-02-11T22:44:17.268Z,98360.51
2023-02-11T22:46:54.122Z,98357.41
2023-02-11T22:49:22.206Z,98355.92
2023-02-11T22:52:03.163Z,98357.31
2023-02-11T22:54:31.757Z,98359.67
2023-02-11T22:57:00.264Z,98359.76
2023-02-11T22:59:28.369Z,98358.46
2023-02-11T23:01:56.433Z,98362.49
2023-02-11T23:04:24.541Z,98365.94
2023-02-11T23:06:52.670Z,98364.70
2023-02-11T23:09:20.594Z,98367.01
2023-02-11T23:11:49.487Z,98363.83
2023-02-11T23:14:17.398Z,98357.65
2023-02-11T23:16:45.456Z,98355.91
2023-02-11T23:19:13.581Z,98349.44
2023-02-11T23:21:41.689Z,98347.21
2023-02-11T23:24:15.619Z,98345.83
2023-02-11T23:26:43.848Z,98346.05
2023-02-11T23:29:12.516Z,98345.16
2023-02-11T23:31:44.220Z,98344.46
2023-02-11T23:34:17.139Z,98342.25
2023-02-11T23:36:45.199Z,98343.68
2023-02-11T23:39:15.988Z,98342.36
2023-02-11T23:41:45.418Z,98343.20
2023-02-11T23:44:13.455Z,98342.98
2023-02-11T23:46:41.630Z,98341.96
2023-02-11T23:49:09.997Z,98338.98
2023-02-11T23:51:37.905Z,98336.33
2023-02-11T23:54:05.840Z,98334.38
2023-02-11T23:56:33.836Z,98335.15
2023-02-11T23:59:01.679Z,98343.77
